sensor_id;sensor_type;location;lat;lon;timestamp;pressure;altitude;pressure_sealevel;temperature;humidity
77013;BME280;67260;53.130;17.982;2024-01-25T00:00:34;100210.88;;;5.80;85.25
77013;BME280;67260;53.130;17.982;2024-01-25T00:03:20;100218.71;;;5.78;85.26
77013;BME280;67260;53.130;17.982;2024-01-25T00:05:47;100222.44;;;5.77;85.52
77013;BME280;67260;53.130;17.982;2024-01-25T00:08:13;100219.90;;;5.75;85.47
77013;BME280;67260;53.130;17.982;2024-01-25T00:11:05;100228.48;;;5.74;85.64
77013;BME280;67260;53.130;17.982;2024-01-25T00:13:31;100226.38;;;5.74;85.71
77013;BME280;67260;53.130;17.982;2024-01-25T00:15:57;100231.55;;;5.72;85.69
77013;BME280;67260;53.130;17.982;2024-01-25T00:18:26;100228.92;;;5.69;85.91
77013;BME280;67260;53.130;17.982;2024-01-25T00:20:54;100229.51;;;5.67;85.90
77013;BME280;67260;53.130;17.982;2024-01-25T00:23:20;100226.91;;;5.67;86.02
77013;BME280;67260;53.130;17.982;2024-01-25T00:25:46;100224.92;;;5.67;85.87
77013;BME280;67260;53.130;17.982;2024-01-25T00:28:12;100224.89;;;5.68;86.04
77013;BME280;67260;53.130;17.982;2024-01-25T00:30:39;100220.23;;;5.68;86.07
77013;BME280;67260;53.130;17.982;2024-01-25T00:33:07;100221.30;;;5.68;86.01
77013;BME280;67260;53.130;17.982;2024-01-25T00:35:36;100220.28;;;5.69;86.04
77013;BME280;67260;53.130;17.982;2024-01-25T00:38:02;100215.88;;;5.69;86.10
77013;BME280;67260;53.130;17.982;2024-01-25T00:40:32;100221.70;;;5.69;86.03
77013;BME280;67260;53.130;17.982;2024-01-25T00:42:58;100219.52;;;5.68;86.00
77013;BME280;67260;53.130;17.982;2024-01-25T00:45:26;100216.98;;;5.67;86.01
77013;BME280;67260;53.130;17.982;2024-01-25T00:47:59;100223.02;;;5.66;86.00
77013;BME280;67260;53.130;17.982;2024-01-25T00:50:34;100224.16;;;5.63;86.07
77013;BME280;67260;53.130;17.982;2024-01-25T00:53:00;100224.59;;;5.61;85.94
77013;BME280;67260;53.130;17.982;2024-01-25T00:55:27;100235.07;;;5.60;86.02
77013;BME280;67260;53.130;17.982;2024-01-25T00:57:54;100224.66;;;5.61;85.97
77013;BME280;67260;53.130;17.982;2024-01-25T01:00:23;100224.24;;;5.60;85.87
77013;BME280;67260;53.130;17.982;2024-01-25T01:02:49;100224.20;;;5.59;85.76
77013;BME280;67260;53.130;17.982;2024-01-25T01:05:19;100223.14;;;5.58;85.87
77013;BME280;67260;53.130;17.982;2024-01-25T01:07:45;100225.63;;;5.60;85.78
77013;BME280;67260;53.130;17.982;2024-01-25T01:10:15;100230.05;;;5.61;85.46
77013;BME280;67260;53.130;17.982;2024-01-25T01:12:41;100234.31;;;5.62;85.47
77013;BME280;67260;53.130;17.982;2024-01-25T01:15:07;100232.69;;;5.64;85.50
77013;BME280;67260;53.130;17.982;2024-01-25T01:17:33;100232.13;;;5.66;85.16
77013;BME280;67260;53.130;17.982;2024-01-25T01:20:00;100230.48;;;5.66;84.94
77013;BME280;67260;53.130;17.982;2024-01-25T01:22:29;100231.17;;;5.68;84.96
77013;BME280;67260;53.130;17.982;2024-01-25T01:24:55;100227.58;;;5.69;85.06
77013;BME280;67260;53.130;17.982;2024-01-25T01:27:21;100230.55;;;5.70;84.99
77013;BME280;67260;53.130;17.982;2024-01-25T01:29:48;100233.92;;;5.70;84.76
77013;BME280;67260;53.130;17.982;2024-01-25T01:32:14;100239.46;;;5.69;84.63
77013;BME280;67260;53.130;17.982;2024-01-25T01:34:40;100232.30;;;5.67;84.73
77013;BME280;67260;53.130;17.982;2024-01-25T01:37:07;100232.38;;;5.67;84.38
77013;BME280;67260;53.130;17.982;2024-01-25T01:39:37;100234.96;;;5.66;84.48
77013;BME280;67260;53.130;17.982;2024-01-25T01:42:06;100236.55;;;5.66;84.61
77013;BME280;67260;53.130;17.982;2024-01-25T01:44:32;100230.39;;;5.67;84.28
77013;BME280;67260;53.130;17.982;2024-01-25T01:46:58;100235.36;;;5.65;84.29
77013;BME280;67260;53.130;17.982;2024-01-25T01:49:25;100231.41;;;5.63;84.21
77013;BME280;67260;53.130;17.982;2024-01-25T01:51:51;100229.47;;;5.60;84.35
77013;BME280;67260;53.130;17.982;2024-01-25T01:54:18;100230.71;;;5.59;84.40
77013;BME280;67260;53.130;17.982;2024-01-25T01:56:45;100229.61;;;5.57;84.33
77013;BME280;67260;53.130;17.982;2024-01-25T01:59:18;100234.58;;;5.55;84.52
77013;BME280;67260;53.130;17.982;2024-01-25T02:01:44;100240.72;;;5.54;84.46
77013;BME280;67260;53.130;17.982;2024-01-25T02:04:10;100239.45;;;5.53;84.46
77013;BME280;67260;53.130;17.982;2024-01-25T02:06:37;100241.80;;;5.52;84.54
77013;BME280;67260;53.130;17.982;2024-01-25T02:09:03;100236.06;;;5.51;84.35
77013;BME280;67260;53.130;17.982;2024-01-25T02:11:31;100230.34;;;5.47;84.33
77013;BME280;67260;53.130;17.982;2024-01-25T02:13:57;100241.47;;;5.45;84.26
77013;BME280;67260;53.130;17.982;2024-01-25T02:16:32;100234.66;;;5.42;84.29
77013;BME280;67260;53.130;17.982;2024-01-25T02:18:58;100236.60;;;5.38;84.23
77013;BME280;67260;53.130;17.982;2024-01-25T02:21:24;100238.14;;;5.35;84.50
77013;BME280;67260;53.130;17.982;2024-01-25T02:23:51;100238.26;;;5.34;84.41
77013;BME280;67260;53.130;17.982;2024-01-25T02:26:17;100235.62;;;5.34;84.31
77013;BME280;67260;53.130;17.982;2024-01-25T02:28:44;100238.84;;;5.32;84.30
77013;BME280;67260;53.130;17.982;2024-01-25T02:31:10;100235.35;;;5.32;84.30
77013;BME280;67260;53.130;17.982;2024-01-25T02:33:36;100242.90;;;5.33;84.22
77013;BME280;67260;53.130;17.982;2024-01-25T02:36:02;100242.21;;;5.33;84.12
77013;BME280;67260;53.130;17.982;2024-01-25T02:38:28;100245.45;;;5.33;84.16
77013;BME280;67260;53.130;17.982;2024-01-25T02:40:54;100240.92;;;5.34;84.28
77013;BME280;67260;53.130;17.982;2024-01-25T02:43:20;100242.16;;;5.35;84.04
77013;BME280;67260;53.130;17.982;2024-01-25T02:45:46;100242.94;;;5.36;84.17
77013;BME280;67260;53.130;17.982;2024-01-25T02:48:14;100245.95;;;5.37;84.08
77013;BME280;67260;53.130;17.982;2024-01-25T02:50:41;100244.37;;;5.37;84.16
77013;BME280;67260;53.130;17.982;2024-01-25T02:53:07;100245.75;;;5.37;84.31
77013;BME280;67260;53.130;17.982;2024-01-25T02:55:34;100249.75;;;5.37;84.33
77013;BME280;67260;53.130;17.982;2024-01-25T02:58:00;100243.65;;;5.35;84.28
77013;BME280;67260;53.130;17.982;2024-01-25T03:00:26;100243.26;;;5.32;84.52
77013;BME280;67260;53.130;17.982;2024-01-25T03:02:52;100239.13;;;5.30;84.68
77013;BME280;67260;53.130;17.982;2024-01-25T03:05:19;100237.48;;;5.29;84.69
77013;BME280;67260;53.130;17.982;2024-01-25T03:07:45;100240.39;;;5.26;84.96
77013;BME280;67260;53.130;17.982;2024-01-25T03:10:11;100244.19;;;5.25;84.99
77013;BME280;67260;53.130;17.982;2024-01-25T03:12:37;100246.55;;;5.23;85.20
77013;BME280;67260;53.130;17.982;2024-01-25T03:15:03;100245.88;;;5.22;85.07
77013;BME280;67260;53.130;17.982;2024-01-25T03:17:29;100245.63;;;5.19;85.14
77013;BME280;67260;53.130;17.982;2024-01-25T03:19:56;100258.19;;;5.19;85.16
77013;BME280;67260;53.130;17.982;2024-01-25T03:22:23;100259.08;;;5.20;85.24
77013;BME280;67260;53.130;17.982;2024-01-25T03:24:52;100255.39;;;5.19;85.30
77013;BME280;67260;53.130;17.982;2024-01-25T03:27:21;100258.27;;;5.18;85.30
77013;BME280;67260;53.130;17.982;2024-01-25T03:29:47;100263.44;;;5.18;85.31
77013;BME280;67260;53.130;17.982;2024-01-25T03:32:13;100267.20;;;5.17;85.40
77013;BME280;67260;53.130;17.982;2024-01-25T03:34:40;100273.15;;;5.17;85.52
77013;BME280;67260;53.130;17.982;2024-01-25T03:37:09;100273.16;;;5.17;85.54
77013;BME280;67260;53.130;17.982;2024-01-25T03:39:38;100276.77;;;5.18;85.57
77013;BME280;67260;53.130;17.982;2024-01-25T03:42:04;100280.61;;;5.18;85.70
77013;BME280;67260;53.130;17.982;2024-01-25T03:44:31;100285.59;;;5.17;85.84
77013;BME280;67260;53.130;17.982;2024-01-25T03:46:58;100288.18;;;5.18;85.91
77013;BME280;67260;53.130;17.982;2024-01-25T03:49:27;100291.46;;;5.17;85.92
77013;BME280;67260;53.130;17.982;2024-01-25T03:52:05;100289.52;;;5.17;85.93
77013;BME280;67260;53.130;17.982;2024-01-25T03:54:31;100296.23;;;5.16;85.92
77013;BME280;67260;53.130;17.982;2024-01-25T03:57:06;100296.62;;;5.15;85.89
77013;BME280;67260;53.130;17.982;2024-01-25T03:59:33;100297.36;;;5.16;86.01
77013;BME280;67260;53.130;17.982;2024-01-25T04:01:59;100294.91;;;5.17;86.00
77013;BME280;67260;53.130;17.982;2024-01-25T04:04:24;100297.79;;;5.18;85.99
77013;BME280;67260;53.130;17.982;2024-01-25T04:06:50;100298.46;;;5.17;85.79
77013;BME280;67260;53.130;17.982;2024-01-25T04:09:17;100293.83;;;5.16;86.02
77013;BME280;67260;53.130;17.982;2024-01-25T04:11:45;100301.55;;;5.14;86.06
77013;BME280;67260;53.130;17.982;2024-01-25T04:14:15;100294.36;;;5.13;86.00
77013;BME280;67260;53.130;17.982;2024-01-25T04:16:45;100295.29;;;5.12;86.05
77013;BME280;67260;53.130;17.982;2024-01-25T04:19:12;100288.86;;;5.10;86.13
77013;BME280;67260;53.130;17.982;2024-01-25T04:21:38;100292.73;;;5.09;86.17
77013;BME280;67260;53.130;17.982;2024-01-25T04:24:07;100300.74;;;5.08;86.12
77013;BME280;67260;53.130;17.982;2024-01-25T04:26:33;100299.83;;;5.07;86.29
77013;BME280;67260;53.130;17.982;2024-01-25T04:28:59;100300.23;;;5.06;86.42
77013;BME280;67260;53.130;17.982;2024-01-25T04:31:26;100313.59;;;5.06;86.57
77013;BME280;67260;53.130;17.982;2024-01-25T04:33:54;100320.90;;;5.05;86.38
77013;BME280;67260;53.130;17.982;2024-01-25T04:36:20;100324.17;;;5.04;86.41
77013;BME280;67260;53.130;17.982;2024-01-25T04:38:46;100325.48;;;5.02;86.58
77013;BME280;67260;53.130;17.982;2024-01-25T04:41:15;100326.10;;;5.01;86.68
77013;BME280;67260;53.130;17.982;2024-01-25T04:43:41;100327.43;;;5.01;86.72
77013;BME280;67260;53.130;17.982;2024-01-25T04:46:16;100331.23;;;5.00;86.80
77013;BME280;67260;53.130;17.982;2024-01-25T04:48:43;100336.47;;;4.98;87.01
77013;BME280;67260;53.130;17.982;2024-01-25T04:51:26;100339.36;;;4.99;86.98
77013;BME280;67260;53.130;17.982;2024-01-25T04:53:52;100336.90;;;4.98;87.06
77013;BME280;67260;53.130;17.982;2024-01-25T04:56:24;100342.30;;;4.98;87.13
77013;BME280;67260;53.130;17.982;2024-01-25T04:58:50;100343.52;;;4.98;87.25
77013;BME280;67260;53.130;17.982;2024-01-25T05:01:18;100343.84;;;4.98;87.24
77013;BME280;67260;53.130;17.982;2024-01-25T05:03:47;100335.48;;;4.98;87.46
77013;BME280;67260;53.130;17.982;2024-01-25T05:06:14;100339.54;;;4.98;87.44
77013;BME280;67260;53.130;17.982;2024-01-25T05:08:42;100336.05;;;4.97;87.54
77013;BME280;67260;53.130;17.982;2024-01-25T05:11:09;100339.25;;;4.97;87.71
77013;BME280;67260;53.130;17.982;2024-01-25T05:13:37;100344.66;;;4.99;87.70
77013;BME280;67260;53.130;17.982;2024-01-25T05:16:03;100351.42;;;5.00;87.73
77013;BME280;67260;53.130;17.982;2024-01-25T05:18:32;100353.54;;;5.00;87.87
77013;BME280;67260;53.130;17.982;2024-01-25T05:20:58;100356.48;;;4.99;87.72
77013;BME280;67260;53.130;17.982;2024-01-25T05:23:24;100354.88;;;4.97;87.80
77013;BME280;67260;53.130;17.982;2024-01-25T05:25:50;100355.48;;;4.96;87.94
77013;BME280;67260;53.130;17.982;2024-01-25T05:28:17;100353.91;;;4.95;88.09
77013;BME280;67260;53.130;17.982;2024-01-25T05:30:43;100354.14;;;4.96;87.98
77013;BME280;67260;53.130;17.982;2024-01-25T05:33:13;100353.77;;;4.96;88.04
77013;BME280;67260;53.130;17.982;2024-01-25T05:35:39;100356.49;;;4.97;88.12
77013;BME280;67260;53.130;17.982;2024-01-25T05:38:08;100359.20;;;4.96;88.18
77013;BME280;67260;53.130;17.982;2024-01-25T05:40:34;100361.92;;;4.95;88.35
77013;BME280;67260;53.130;17.982;2024-01-25T05:43:04;100372.83;;;4.95;88.36
77013;BME280;67260;53.130;17.982;2024-01-25T05:45:30;100374.38;;;4.93;88.46
77013;BME280;67260;53.130;17.982;2024-01-25T05:47:56;100375.89;;;4.95;88.50
77013;BME280;67260;53.130;17.982;2024-01-25T05:50:23;100373.42;;;4.95;88.46
77013;BME280;67260;53.130;17.982;2024-01-25T05:52:49;100373.98;;;4.94;88.48
77013;BME280;67260;53.130;17.982;2024-01-25T05:55:18;100373.44;;;4.93;88.33
77013;BME280;67260;53.130;17.982;2024-01-25T05:57:44;100375.31;;;4.92;88.59
77013;BME280;67260;53.130;17.982;2024-01-25T06:00:11;100382.04;;;4.91;88.34
77013;BME280;67260;53.130;17.982;2024-01-25T06:02:39;100381.98;;;4.92;88.44
77013;BME280;67260;53.130;17.982;2024-01-25T06:05:05;100373.31;;;4.92;88.39
77013;BME280;67260;53.130;17.982;2024-01-25T06:07:31;100379.39;;;4.93;88.47
77013;BME280;67260;53.130;17.982;2024-01-25T06:09:57;100386.08;;;4.93;88.35
77013;BME280;67260;53.130;17.982;2024-01-25T06:12:23;100386.00;;;4.93;88.33
77013;BME280;67260;53.130;17.982;2024-01-25T06:14:49;100393.46;;;4.94;88.34
77013;BME280;67260;53.130;17.982;2024-01-25T06:17:17;100400.49;;;4.96;88.29
77013;BME280;67260;53.130;17.982;2024-01-25T06:19:43;100409.95;;;4.97;88.20
77013;BME280;67260;53.130;17.982;2024-01-25T06:22:09;100419.13;;;4.98;88.00
77013;BME280;67260;53.130;17.982;2024-01-25T06:24:38;100419.60;;;4.97;88.22
77013;BME280;67260;53.130;17.982;2024-01-25T06:27:04;100422.42;;;4.97;88.15
77013;BME280;67260;53.130;17.982;2024-01-25T06:29:30;100423.31;;;4.97;88.08
77013;BME280;67260;53.130;17.982;2024-01-25T06:31:56;100424.23;;;4.98;87.99
77013;BME280;67260;53.130;17.982;2024-01-25T06:34:22;100429.02;;;4.99;88.03
77013;BME280;67260;53.130;17.982;2024-01-25T06:36:48;100423.88;;;5.00;87.83
77013;BME280;67260;53.130;17.982;2024-01-25T06:39:15;100424.63;;;5.01;87.74
77013;BME280;67260;53.130;17.982;2024-01-25T06:41:41;100425.98;;;5.01;87.76
77013;BME280;67260;53.130;17.982;2024-01-25T06:44:07;100421.08;;;5.01;87.74
77013;BME280;67260;53.130;17.982;2024-01-25T06:46:36;100417.89;;;5.01;87.48
77013;BME280;67260;53.130;17.982;2024-01-25T06:49:02;100420.41;;;5.03;87.63
77013;BME280;67260;53.130;17.982;2024-01-25T06:51:28;100419.66;;;5.01;87.53
77013;BME280;67260;53.130;17.982;2024-01-25T06:53:57;100421.04;;;5.02;87.46
77013;BME280;67260;53.130;17.982;2024-01-25T06:56:23;100426.11;;;5.02;87.47
77013;BME280;67260;53.130;17.982;2024-01-25T06:58:49;100434.90;;;5.04;87.21
77013;BME280;67260;53.130;17.982;2024-01-25T07:01:22;100444.65;;;5.07;87.25
77013;BME280;67260;53.130;17.982;2024-01-25T07:03:48;100453.04;;;5.09;87.23
77013;BME280;67260;53.130;17.982;2024-01-25T07:06:18;100470.61;;;5.11;87.29
77013;BME280;67260;53.130;17.982;2024-01-25T07:08:45;100471.98;;;5.13;87.10
77013;BME280;67260;53.130;17.982;2024-01-25T07:11:13;100481.36;;;5.14;87.04
77013;BME280;67260;53.130;17.982;2024-01-25T07:13:44;100483.20;;;5.15;87.18
77013;BME280;67260;53.130;17.982;2024-01-25T07:16:11;100493.02;;;5.16;87.09
77013;BME280;67260;53.130;17.982;2024-01-25T07:18:39;100492.88;;;5.17;87.16
77013;BME280;67260;53.130;17.982;2024-01-25T07:21:05;100500.11;;;5.19;87.20
77013;BME280;67260;53.130;17.982;2024-01-25T07:23:33;100506.45;;;5.20;87.09
77013;BME280;67260;53.130;17.982;2024-01-25T07:25:59;100511.63;;;5.21;87.25
77013;BME280;67260;53.130;17.982;2024-01-25T07:28:25;100512.11;;;5.21;87.07
77013;BME280;67260;53.130;17.982;2024-01-25T07:30:52;100518.71;;;5.23;87.02
77013;BME280;67260;53.130;17.982;2024-01-25T07:33:22;100522.45;;;5.24;86.95
77013;BME280;67260;53.130;17.982;2024-01-25T07:35:48;100521.23;;;5.25;87.00
77013;BME280;67260;53.130;17.982;2024-01-25T07:38:14;100526.32;;;5.27;86.90
77013;BME280;67260;53.130;17.982;2024-01-25T07:40:41;100539.09;;;5.31;86.94
77013;BME280;67260;53.130;17.982;2024-01-25T07:43:07;100542.46;;;5.33;86.92
77013;BME280;67260;53.130;17.982;2024-01-25T07:45:35;100551.47;;;5.36;86.88
77013;BME280;67260;53.130;17.982;2024-01-25T07:48:02;100555.04;;;5.39;86.84
77013;BME280;67260;53.130;17.982;2024-01-25T07:50:28;100564.98;;;5.42;86.60
77013;BME280;67260;53.130;17.982;2024-01-25T07:52:54;100572.15;;;5.44;86.54
77013;BME280;67260;53.130;17.982;2024-01-25T07:55:21;100573.29;;;5.46;86.65
77013;BME280;67260;53.130;17.982;2024-01-25T07:57:47;100575.98;;;5.50;86.56
77013;BME280;67260;53.130;17.982;2024-01-25T08:00:13;100581.33;;;5.52;86.37
77013;BME280;67260;53.130;17.982;2024-01-25T08:02:42;100585.52;;;5.56;86.21
77013;BME280;67260;53.130;17.982;2024-01-25T08:05:15;100583.88;;;5.56;86.03
77013;BME280;67260;53.130;17.982;2024-01-25T08:07:41;100588.46;;;5.59;86.04
77013;BME280;67260;53.130;17.982;2024-01-25T08:10:08;100592.79;;;5.62;86.20
77013;BME280;67260;53.130;17.982;2024-01-25T08:12:35;100597.39;;;5.63;86.07
77013;BME280;67260;53.130;17.982;2024-01-25T08:15:01;100606.77;;;5.64;85.91
77013;BME280;67260;53.130;17.982;2024-01-25T08:17:27;100604.38;;;5.66;85.75
77013;BME280;67260;53.130;17.982;2024-01-25T08:19:56;100612.55;;;5.67;85.39
77013;BME280;67260;53.130;17.982;2024-01-25T08:22:22;100613.09;;;5.68;85.16
77013;BME280;67260;53.130;17.982;2024-01-25T08:24:51;100615.59;;;5.72;85.04
77013;BME280;67260;53.130;17.982;2024-01-25T08:27:18;100626.59;;;5.77;85.05
77013;BME280;67260;53.130;17.982;2024-01-25T08:29:45;100628.45;;;5.79;84.78
77013;BME280;67260;53.130;17.982;2024-01-25T08:32:11;100635.27;;;5.80;84.87
77013;BME280;67260;53.130;17.982;2024-01-25T08:34:37;100640.70;;;5.80;84.74
77013;BME280;67260;53.130;17.982;2024-01-25T08:37:07;100646.46;;;5.80;84.23
77013;BME280;67260;53.130;17.982;2024-01-25T08:39:39;100644.84;;;5.82;84.40
77013;BME280;67260;53.130;17.982;2024-01-25T08:42:06;100651.55;;;5.83;84.00
77013;BME280;67260;53.130;17.982;2024-01-25T08:44:32;100660.10;;;5.85;84.13
77013;BME280;67260;53.130;17.982;2024-01-25T08:46:58;100664.17;;;5.88;84.11
77013;BME280;67260;53.130;17.982;2024-01-25T08:49:26;100665.40;;;5.93;84.02
77013;BME280;67260;53.130;17.982;2024-01-25T08:51:52;100671.09;;;5.95;83.54
77013;BME280;67260;53.130;17.982;2024-01-25T08:54:30;100680.46;;;5.98;83.54
77013;BME280;67260;53.130;17.982;2024-01-25T08:57:09;100683.94;;;6.00;83.71
77013;BME280;67260;53.130;17.982;2024-01-25T08:59:40;100692.62;;;6.02;83.61
77013;BME280;67260;53.130;17.982;2024-01-25T09:02:06;100698.85;;;6.06;83.11
77013;BME280;67260;53.130;17.982;2024-01-25T09:04:46;100700.27;;;6.06;83.17
77013;BME280;67260;53.130;17.982;2024-01-25T09:07:12;100706.02;;;6.05;83.29
77013;BME280;67260;53.130;17.982;2024-01-25T09:09:38;100709.87;;;6.05;83.40
77013;BME280;67260;53.130;17.982;2024-01-25T09:12:04;100717.44;;;6.07;83.39
77013;BME280;67260;53.130;17.982;2024-01-25T09:14:36;100718.21;;;6.09;83.15
77013;BME280;67260;53.130;17.982;2024-01-25T09:17:03;100722.17;;;6.11;82.93
77013;BME280;67260;53.130;17.982;2024-01-25T09:19:35;100725.55;;;6.11;82.82
77013;BME280;67260;53.130;17.982;2024-01-25T09:22:26;100727.23;;;6.14;82.95
77013;BME280;67260;53.130;17.982;2024-01-25T09:25:12;100732.30;;;6.15;82.70
77013;BME280;67260;53.130;17.982;2024-01-25T09:27:38;100732.70;;;6.14;82.52
77013;BME280;67260;53.130;17.982;2024-01-25T09:30:07;100740.90;;;6.12;82.01
77013;BME280;67260;53.130;17.982;2024-01-25T09:32:34;100750.52;;;6.09;82.47
77013;BME280;67260;53.130;17.982;2024-01-25T09:35:01;100752.27;;;6.09;82.67
77013;BME280;67260;53.130;17.982;2024-01-25T09:37:27;100751.52;;;6.08;82.39
77013;BME280;67260;53.130;17.982;2024-01-25T09:39:53;100768.27;;;6.11;82.41
77013;BME280;67260;53.130;17.982;2024-01-25T09:42:19;100766.61;;;6.13;82.23
77013;BME280;67260;53.130;17.982;2024-01-25T09:44:45;100775.00;;;6.15;82.21
77013;BME280;67260;53.130;17.982;2024-01-25T09:47:12;100767.35;;;6.18;82.16
77013;BME280;67260;53.130;17.982;2024-01-25T09:49:41;100762.54;;;6.25;82.10
77013;BME280;67260;53.130;17.982;2024-01-25T09:52:14;100773.27;;;6.39;81.96
77013;BME280;67260;53.130;17.982;2024-01-25T09:54:45;100773.89;;;6.42;81.67
77013;BME280;67260;53.130;17.982;2024-01-25T09:57:16;100779.30;;;6.43;81.61
77013;BME280;67260;53.130;17.982;2024-01-25T09:59:53;100783.07;;;6.45;81.16
77013;BME280;67260;53.130;17.982;2024-01-25T10:02:21;100784.59;;;6.46;81.29
77013;BME280;67260;53.130;17.982;2024-01-25T10:04:50;100791.88;;;6.50;81.20
77013;BME280;67260;53.130;17.982;2024-01-25T10:07:40;100800.80;;;6.56;81.41
77013;BME280;67260;53.130;17.982;2024-01-25T10:10:06;100800.36;;;6.63;81.28
77013;BME280;67260;53.130;17.982;2024-01-25T10:12:33;100804.66;;;6.67;80.83
77013;BME280;67260;53.130;17.982;2024-01-25T10:14:59;100804.23;;;6.66;80.75
77013;BME280;67260;53.130;17.982;2024-01-25T10:17:25;100809.38;;;6.67;80.85
77013;BME280;67260;53.130;17.982;2024-01-25T10:19:51;100811.89;;;6.67;80.70
77013;BME280;67260;53.130;17.982;2024-01-25T10:22:21;100817.70;;;6.65;80.69
77013;BME280;67260;53.130;17.982;2024-01-25T10:24:47;100815.81;;;6.66;80.50
77013;BME280;67260;53.130;17.982;2024-01-25T10:27:17;100820.09;;;6.64;80.86
77013;BME280;67260;53.130;17.982;2024-01-25T10:29:44;100825.88;;;6.63;80.90
77013;BME280;67260;53.130;17.982;2024-01-25T10:32:13;100834.13;;;6.61;81.02
77013;BME280;67260;53.130;17.982;2024-01-25T10:34:41;100834.95;;;6.64;81.19
77013;BME280;67260;53.130;17.982;2024-01-25T10:37:13;100832.60;;;6.62;81.08
77013;BME280;67260;53.130;17.982;2024-01-25T10:39:39;100835.27;;;6.59;80.66
77013;BME280;67260;53.130;17.982;2024-01-25T10:42:07;100837.41;;;6.56;80.63
77013;BME280;67260;53.130;17.982;2024-01-25T10:44:33;100844.48;;;6.54;80.61
77013;BME280;67260;53.130;17.982;2024-01-25T10:47:00;100840.23;;;6.53;80.57
77013;BME280;67260;53.130;17.982;2024-01-25T10:49:27;100849.41;;;6.52;80.33
77013;BME280;67260;53.130;17.982;2024-01-25T10:51:54;100851.83;;;6.51;80.12
77013;BME280;67260;53.130;17.982;2024-01-25T10:54:20;100854.58;;;6.53;80.52
77013;BME280;67260;53.130;17.982;2024-01-25T10:56:47;100853.96;;;6.57;80.48
77013;BME280;67260;53.130;17.982;2024-01-25T10:59:13;100855.88;;;6.62;80.07
77013;BME280;67260;53.130;17.982;2024-01-25T11:01:45;100850.77;;;6.65;80.09
77013;BME280;67260;53.130;17.982;2024-01-25T11:04:13;100856.02;;;6.68;79.86
77013;BME280;67260;53.130;17.982;2024-01-25T11:06:39;100854.95;;;6.74;79.93
77013;BME280;67260;53.130;17.982;2024-01-25T11:09:30;100851.16;;;6.84;79.71
77013;BME280;67260;53.130;17.982;2024-01-25T11:11:58;100860.31;;;6.98;79.61
77013;BME280;67260;53.130;17.982;2024-01-25T11:14:32;100859.69;;;7.05;79.33
77013;BME280;67260;53.130;17.982;2024-01-25T11:16:58;100859.83;;;7.06;79.25
77013;BME280;67260;53.130;17.982;2024-01-25T11:19:24;100869.31;;;7.07;79.27
77013;BME280;67260;53.130;17.982;2024-01-25T11:21:51;100873.98;;;7.07;79.28
77013;BME280;67260;53.130;17.982;2024-01-25T11:24:20;100876.02;;;7.05;79.30
77013;BME280;67260;53.130;17.982;2024-01-25T11:26:47;100885.92;;;7.02;79.26
77013;BME280;67260;53.130;17.982;2024-01-25T11:29:14;100891.77;;;6.96;79.11
77013;BME280;67260;53.130;17.982;2024-01-25T11:31:44;100900.22;;;6.87;79.23
77013;BME280;67260;53.130;17.982;2024-01-25T11:34:14;100899.48;;;6.81;79.27
77013;BME280;67260;53.130;17.982;2024-01-25T11:36:44;100903.98;;;6.74;79.10
77013;BME280;67260;53.130;17.982;2024-01-25T11:39:14;100907.65;;;6.69;79.52
77013;BME280;67260;53.130;17.982;2024-01-25T11:41:42;100907.39;;;6.66;79.34
77013;BME280;67260;53.130;17.982;2024-01-25T11:44:10;100918.23;;;6.59;79.11
77013;BME280;67260;53.130;17.982;2024-01-25T11:46:36;100919.23;;;6.51;79.45
77013;BME280;67260;53.130;17.982;2024-01-25T11:49:02;100919.96;;;6.49;79.72
77013;BME280;67260;53.130;17.982;2024-01-25T11:51:29;100930.14;;;6.48;79.76
77013;BME280;67260;53.130;17.982;2024-01-25T11:53:55;100936.63;;;6.44;79.81
77013;BME280;67260;53.130;17.982;2024-01-25T11:56:27;100942.62;;;6.41;79.95
77013;BME280;67260;53.130;17.982;2024-01-25T11:58:54;100948.34;;;6.37;80.04
77013;BME280;67260;53.130;17.982;2024-01-25T12:01:25;100950.02;;;6.33;80.06
77013;BME280;67260;53.130;17.982;2024-01-25T12:03:51;100955.17;;;6.29;80.13
77013;BME280;67260;53.130;17.982;2024-01-25T12:06:18;100960.67;;;6.26;80.33
77013;BME280;67260;53.130;17.982;2024-01-25T12:08:45;100961.67;;;6.23;80.64
77013;BME280;67260;53.130;17.982;2024-01-25T12:11:14;100967.88;;;6.21;80.89
77013;BME280;67260;53.130;17.982;2024-01-25T12:13:44;100974.05;;;6.20;80.83
77013;BME280;67260;53.130;17.982;2024-01-25T12:16:11;100981.17;;;6.20;81.06
77013;BME280;67260;53.130;17.982;2024-01-25T12:18:41;100986.48;;;6.20;81.28
77013;BME280;67260;53.130;17.982;2024-01-25T12:21:08;100992.91;;;6.19;81.35
77013;BME280;67260;53.130;17.982;2024-01-25T12:23:36;100994.73;;;6.20;81.39
77013;BME280;67260;53.130;17.982;2024-01-25T12:26:08;100999.61;;;6.19;81.49
77013;BME280;67260;53.130;17.982;2024-01-25T12:28:35;101003.83;;;6.19;81.67
77013;BME280;67260;53.130;17.982;2024-01-25T12:31:02;101003.16;;;6.20;81.66
77013;BME280;67260;53.130;17.982;2024-01-25T12:33:29;101006.98;;;6.19;81.78
77013;BME280;67260;53.130;17.982;2024-01-25T12:35:56;101007.81;;;6.20;81.82
77013;BME280;67260;53.130;17.982;2024-01-25T12:38:22;101013.66;;;6.17;81.90
77013;BME280;67260;53.130;17.982;2024-01-25T12:40:49;101014.95;;;6.15;81.92
77013;BME280;67260;53.130;17.982;2024-01-25T12:43:16;101018.23;;;6.13;81.88
77013;BME280;67260;53.130;17.982;2024-01-25T12:45:43;101024.77;;;6.09;82.14
77013;BME280;67260;53.130;17.982;2024-01-25T12:48:09;101033.06;;;6.12;82.26
77013;BME280;67260;53.130;17.982;2024-01-25T12:50:35;101036.75;;;6.14;82.33
77013;BME280;67260;53.130;17.982;2024-01-25T12:53:02;101034.84;;;6.14;82.17